Thunder radar more information blitzortung!


Radar de pluja more information rain snow radar


Visita la nostra xarxa de llocs de meteo:

Template documentation
and downloads

And another site



No particular awareness of the weather is required.    There are no Weather-warnings

Pagina Historial Weather Underground text

Diari Resum Juliol 23, 2017 Unitats:  Mètric    Imperial   Tant
« Previous Dia
SegĂźent Dia »
Diari Setmana Mensual Anual Personalitzada
  Maxima: Minima: Media:
Temperatura: 28.7 °C 17.3 °C 23.4 °C
Punt de rosada: 20.1 °C 14.8 °C 17.6 °C
Humitat: 94 % 50 % 72 %
Wind Speed: 37.0 km/h 0.0 km/h 6.3 km/h
RĂ fegues de vent: 37.0 km/h - -
Vent:- - SE
Pression baro: 1017.8 hPa 1012.8 hPa -
Precipitacions: 5.3 mm    
Historical Graphs
 
 
Dades de taula per Juliol 23, 2017
Temps Temperatura Punt de rosada Pression baro Vent Wind Speed RĂ fegues de vent Humitat Rainfall Rate (Hourly)
00:00 22.5 °C 18.3 °C 1015.8 hPa NNE 1.6 km/h 1.6 km/h 77 % 0.0 mm
00:02 24.2 °C 17.9 °C 1014.8 hPa WSW 1.9 km/h   68 % 0.0 mm
00:10 22.5 °C 18.3 °C 1015.8 hPa Calm   3.2 km/h 77 % 0.0 mm
00:20 22.5 °C 18.3 °C 1015.8 hPa Calm   1.6 km/h 77 % 0.0 mm
00:30 22.5 °C 18.4 °C 1015.8 hPa NE 1.6 km/h 1.6 km/h 78 % 0.0 mm
00:40 22.4 °C 18.4 °C 1015.8 hPa NE 1.6 km/h 4.8 km/h 78 % 0.0 mm
00:50 22.4 °C 18.4 °C 1015.8 hPa NE 1.6 km/h 3.2 km/h 78 % 0.0 mm
01:00 22.5 °C 18.4 °C 1015.8 hPa NE 3.2 km/h 4.8 km/h 78 % 0.0 mm
01:10 22.5 °C 18.4 °C 1016.8 hPa NE 3.2 km/h 4.8 km/h 78 % 0.0 mm
01:20 22.5 °C 18.7 °C 1016.8 hPa NE 1.6 km/h 3.2 km/h 79 % 0.0 mm
01:30 22.4 °C 18.6 °C 1016.8 hPa NE 3.2 km/h 4.8 km/h 79 % 0.0 mm
01:40 22.4 °C 18.6 °C 1016.8 hPa NNE 4.8 km/h 6.4 km/h 79 % 0.0 mm
01:50 22.5 °C 18.7 °C 1016.8 hPa NNE 4.8 km/h 6.4 km/h 79 % 0.0 mm
02:00 22.5 °C 18.9 °C 1016.8 hPa NE 4.8 km/h 6.4 km/h 80 % 0.0 mm
02:10 22.6 °C 19.0 °C 1016.8 hPa NNE 1.6 km/h 4.8 km/h 80 % 0.0 mm
02:20 22.6 °C 19.0 °C 1016.8 hPa Calm   4.8 km/h 80 % 0.0 mm
02:30 22.7 °C 19.1 °C 1017.8 hPa Calm   1.6 km/h 80 % 0.0 mm
02:40 22.8 °C 19.2 °C 1017.8 hPa NE 3.2 km/h 3.2 km/h 80 % 0.0 mm
02:50 23.0 °C 19.2 °C 1017.8 hPa NE 1.6 km/h 4.8 km/h 79 % 0.0 mm
03:00 23.2 °C 19.2 °C 1017.8 hPa NE 3.2 km/h 3.2 km/h 78 % 0.0 mm
03:10 23.7 °C 19.6 °C 1017.8 hPa NE 1.6 km/h 3.2 km/h 78 % 0.0 mm
03:20 23.9 °C 19.6 °C 1017.8 hPa NE 3.2 km/h 4.8 km/h 77 % 0.0 mm
03:30 24.4 °C 19.9 °C 1017.8 hPa NE 3.2 km/h 4.8 km/h 76 % 0.0 mm
03:40 24.8 °C 20.1 °C 1017.8 hPa NE 3.2 km/h 4.8 km/h 75 % 0.0 mm
03:50 24.7 °C 19.8 °C 1017.8 hPa NE 4.8 km/h 6.4 km/h 74 % 0.0 mm
04:00 25.1 °C 19.7 °C 1017.8 hPa NE 3.2 km/h 4.8 km/h 72 % 0.0 mm
04:10 25.4 °C 19.6 °C 1017.8 hPa East 3.2 km/h 4.8 km/h 70 % 0.0 mm
04:20 25.2 °C 19.3 °C 1017.8 hPa ESE 3.2 km/h 6.4 km/h 70 % 0.0 mm
04:30 25.2 °C 19.3 °C 1017.8 hPa SE 1.6 km/h 3.2 km/h 70 % 0.0 mm
04:40 25.3 °C 19.4 °C 1017.8 hPa South 3.2 km/h 3.2 km/h 70 % 0.0 mm
04:50 25.7 °C 19.8 °C 1017.8 hPa ESE 1.6 km/h 3.2 km/h 70 % 0.0 mm
05:00 25.7 °C 19.6 °C 1017.8 hPa ENE 1.6 km/h 3.2 km/h 69 % 0.0 mm
05:10 25.8 °C 19.7 °C 1017.8 hPa NE 3.2 km/h 3.2 km/h 69 % 0.0 mm
05:20 25.7 °C 19.6 °C 1017.8 hPa East 1.6 km/h 3.2 km/h 69 % 0.0 mm
05:30 25.9 °C 19.6 °C 1017.8 hPa ESE 1.6 km/h 3.2 km/h 68 % 0.0 mm
05:40 25.7 °C 19.1 °C 1017.8 hPa East 1.6 km/h 6.4 km/h 67 % 0.0 mm
05:50 25.8 °C 18.9 °C 1017.8 hPa NE 3.2 km/h 4.8 km/h 66 % 0.0 mm
05:55 26.0 °C 19.4 °C 1017.8 hPa ENE 1.6 km/h 3.2 km/h 67 % 0.0 mm
10:56 26.0 °C 18.9 °C 1017.8 hPa ESE 5.6 km/h 5.6 km/h 65 % 0.0 mm
11:01 26.0 °C 18.9 °C 1017.8 hPa ESE 11.1 km/h 11.1 km/h 65 % 0.0 mm
11:06 26.0 °C 18.7 °C 1017.8 hPa ESE 5.8 km/h 5.8 km/h 64 % 0.0 mm
11:11 26.0 °C 19.2 °C 1017.8 hPa SSW 11.1 km/h 11.1 km/h 66 % 0.0 mm
11:16 26.2 °C 19.3 °C 1017.8 hPa South 5.6 km/h 5.6 km/h 66 % 0.0 mm
11:21 26.4 °C 19.6 °C 1017.8 hPa SSW 5.6 km/h 5.6 km/h 66 % 0.0 mm
11:26 26.4 °C 19.6 °C 1017.8 hPa WSW 5.6 km/h 5.6 km/h 66 % 0.0 mm
11:31 26.6 °C 19.5 °C 1017.8 hPa SW 5.8 km/h 5.8 km/h 65 % 0.0 mm
11:36 26.8 °C 19.7 °C 1017.8 hPa SW 1.9 km/h 2.3 km/h 65 % 0.0 mm
11:41 27.0 °C 19.6 °C 1017.8 hPa SW 3.7 km/h   64 % 0.0 mm
11:42 27.0 °C 19.6 °C 1017.8 hPa SW 1.9 km/h   64 % 0.0 mm
11:46 27.0 °C 19.3 °C 1017.8 hPa ESE 5.6 km/h 5.6 km/h 63 % 0.0 mm
11:51 27.0 °C 19.1 °C 1017.8 hPa SE 7.4 km/h 7.4 km/h 62 % 0.0 mm
11:56 26.8 °C 18.9 °C 1017.8 hPa South 5.6 km/h 5.6 km/h 62 % 0.0 mm
12:02 26.8 °C 18.7 °C 1017.8 hPa South 9.3 km/h 9.3 km/h 61 % 0.0 mm
12:07 27.2 °C 18.8 °C 1017.8 hPa ESE 3.7 km/h 3.7 km/h 60 % 0.0 mm
12:12 27.2 °C 18.8 °C 1017.8 hPa South 5.6 km/h 5.6 km/h 60 % 0.0 mm
12:17 27.4 °C 18.9 °C 1017.8 hPa Calm   2.3 km/h 60 % 0.0 mm
12:22 27.2 °C 18.5 °C 1017.8 hPa SSE 9.3 km/h 9.3 km/h 59 % 0.0 mm
12:27 27.2 °C 18.5 °C 1017.8 hPa ESE 8.7 km/h 8.7 km/h 59 % 0.0 mm
12:32 27.4 °C 18.7 °C 1017.8 hPa South 7.4 km/h 7.4 km/h 59 % 0.0 mm
12:37 27.4 °C 18.7 °C 1017.8 hPa SSE 5.6 km/h 5.6 km/h 59 % 0.0 mm
12:42 27.9 °C 19.2 °C 1017.8 hPa SSE 3.7 km/h 3.9 km/h 59 % 0.0 mm
12:47 27.9 °C 19.2 °C 1017.8 hPa ENE 9.3 km/h 9.3 km/h 59 % 0.0 mm
12:52 27.6 °C 18.9 °C 1017.8 hPa East 7.4 km/h 7.4 km/h 59 % 0.0 mm
12:57 27.9 °C 18.9 °C 1017.8 hPa East 16.7 km/h 16.7 km/h 58 % 0.0 mm
13:02 27.7 °C 18.7 °C 1017.8 hPa East 7.4 km/h 7.4 km/h 58 % 0.0 mm
13:07 27.6 °C 18.3 °C 1017.8 hPa SE 9.3 km/h 9.3 km/h 57 % 0.0 mm
13:12 27.4 °C 18.1 °C 1017.8 hPa ESE 7.6 km/h 9.0 km/h 57 % 0.0 mm
13:17 27.5 °C 18.2 °C 1017.8 hPa East 13.0 km/h 13.0 km/h 57 % 0.0 mm
13:22 27.6 °C 18.1 °C 1017.8 hPa ESE 13.0 km/h 13.0 km/h 56 % 0.0 mm
13:27 27.2 °C 17.4 °C 1017.8 hPa ENE 14.8 km/h 14.8 km/h 55 % 0.0 mm
13:32 27.3 °C 17.8 °C 1017.8 hPa NNE 7.4 km/h 7.9 km/h 56 % 0.0 mm
13:37 27.0 °C 16.9 °C 1016.8 hPa East 16.7 km/h 16.7 km/h 54 % 0.0 mm
13:42 27.3 °C 17.2 °C 1016.8 hPa South 9.3 km/h 9.3 km/h 54 % 0.0 mm
13:47 27.2 °C 17.1 °C 1016.8 hPa SE 13.0 km/h 13.0 km/h 54 % 0.0 mm
13:52 27.0 °C 16.9 °C 1016.8 hPa ESE 14.8 km/h 14.8 km/h 54 % 0.0 mm
13:57 27.0 °C 16.9 °C 1016.8 hPa ESE 9.3 km/h 9.3 km/h 54 % 0.0 mm
14:02 27.1 °C 17.0 °C 1016.8 hPa ESE 13.0 km/h 13.0 km/h 54 % 0.0 mm
14:07 27.0 °C 16.6 °C 1015.8 hPa ESE 11.1 km/h 11.1 km/h 53 % 0.0 mm
14:12 27.3 °C 17.2 °C 1015.8 hPa ENE 11.1 km/h 11.1 km/h 54 % 0.0 mm
14:17 27.3 °C 16.9 °C 1015.8 hPa ENE 12.6 km/h 12.6 km/h 53 % 0.0 mm
14:22 27.4 °C 17.0 °C 1014.8 hPa East 9.3 km/h 9.3 km/h 53 % 0.0 mm
14:27 27.4 °C 17.0 °C 1014.8 hPa ESE 13.0 km/h 13.0 km/h 53 % 0.0 mm
14:32 27.7 °C 17.3 °C 1014.8 hPa SE 7.4 km/h 7.4 km/h 53 % 0.0 mm
14:37 28.0 °C 17.5 °C 1016.8 hPa ESE 9.3 km/h 9.3 km/h 53 % 0.0 mm
14:42 27.8 °C 17.1 °C 1016.8 hPa ENE 9.3 km/h 9.3 km/h 52 % 0.0 mm
14:47 27.9 °C 17.1 °C 1016.8 hPa ESE 9.7 km/h 9.7 km/h 52 % 0.0 mm
14:52 27.8 °C 17.1 °C 1015.8 hPa South 11.1 km/h 11.1 km/h 52 % 0.0 mm
14:57 27.8 °C 16.7 °C 1015.8 hPa ESE 16.9 km/h 16.9 km/h 51 % 0.0 mm
15:02 28.5 °C 17.7 °C 1015.8 hPa SE 9.3 km/h 9.3 km/h 52 % 0.0 mm
15:07 28.6 °C 17.2 °C 1015.8 hPa ENE 11.1 km/h 11.1 km/h 50 % 0.0 mm
15:12 28.4 °C 17.0 °C 1015.8 hPa East 14.8 km/h 14.8 km/h 50 % 0.0 mm
15:17 28.0 °C 16.6 °C 1015.8 hPa South 14.8 km/h 14.8 km/h 50 % 0.0 mm
15:22 28.7 °C 17.2 °C 1015.8 hPa SE 18.5 km/h 18.5 km/h 50 % 0.0 mm
15:27 28.3 °C 16.9 °C 1015.8 hPa ESE 13.0 km/h 13.0 km/h 50 % 0.0 mm
15:32 28.4 °C 17.0 °C 1015.8 hPa SE 13.0 km/h 13.0 km/h 50 % 0.0 mm
15:37 28.1 °C 16.7 °C 1014.8 hPa ENE 18.5 km/h 18.5 km/h 50 % 0.0 mm
15:42 27.9 °C 16.5 °C 1014.8 hPa East 16.7 km/h 16.7 km/h 50 % 0.0 mm
15:47 27.8 °C 16.7 °C 1014.8 hPa NE 14.8 km/h 14.8 km/h 51 % 0.0 mm
15:52 28.2 °C 17.1 °C 1014.8 hPa South 9.3 km/h 9.3 km/h 51 % 0.0 mm
15:57 28.2 °C 17.1 °C 1014.8 hPa SW 7.4 km/h 7.4 km/h 51 % 0.0 mm
16:02 28.0 °C 16.9 °C 1014.8 hPa ESE 9.3 km/h 9.3 km/h 51 % 0.0 mm
16:07 28.1 °C 17.0 °C 1014.8 hPa SSE 11.4 km/h 11.4 km/h 51 % 0.0 mm
16:12 28.2 °C 17.1 °C 1014.8 hPa ESE 7.4 km/h 7.4 km/h 51 % 0.0 mm
16:17 28.0 °C 16.9 °C 1014.8 hPa ESE 5.6 km/h 5.6 km/h 51 % 0.0 mm
16:22 28.4 °C 17.3 °C 1015.8 hPa ESE 5.6 km/h 5.6 km/h 51 % 0.0 mm
16:27 28.6 °C 17.4 °C 1015.8 hPa ESE 9.3 km/h 9.3 km/h 51 % 0.0 mm
16:32 28.1 °C 17.0 °C 1015.8 hPa ESE 16.7 km/h 16.7 km/h 51 % 0.0 mm
16:37 27.6 °C 16.6 °C 1014.8 hPa ESE 14.8 km/h 14.8 km/h 51 % 0.0 mm
16:42 27.2 °C 16.5 °C 1014.8 hPa ESE 9.5 km/h 11.1 km/h 52 % 0.0 mm
16:47 27.1 °C 16.4 °C 1014.8 hPa SSW 18.5 km/h 18.5 km/h 52 % 0.0 mm
16:52 27.1 °C 16.7 °C 1014.8 hPa SE 12.6 km/h 12.6 km/h 53 % 0.0 mm
16:57 26.7 °C 16.6 °C 1014.8 hPa South 11.9 km/h 14.0 km/h 54 % 0.0 mm
17:02 27.0 °C 16.9 °C 1014.8 hPa SSE 9.3 km/h 9.3 km/h 54 % 0.0 mm
17:07 26.7 °C 16.9 °C 1014.8 hPa SSE 7.4 km/h 7.6 km/h 55 % 0.0 mm
17:12 26.7 °C 16.9 °C 1014.8 hPa ENE 9.3 km/h 9.3 km/h 55 % 0.0 mm
17:17 26.6 °C 17.1 °C 1014.8 hPa ESE 14.0 km/h 14.0 km/h 56 % 0.0 mm
17:22 26.3 °C 17.1 °C 1014.8 hPa ESE 10.3 km/h 10.3 km/h 57 % 0.0 mm
17:27 26.3 °C 17.1 °C 1014.8 hPa NE 9.3 km/h 9.3 km/h 57 % 0.0 mm
17:32 26.6 °C 17.4 °C 1014.8 hPa SE 6.1 km/h 6.4 km/h 57 % 0.0 mm
17:37 27.3 °C 17.8 °C 1014.8 hPa SE 5.6 km/h 5.6 km/h 56 % 0.0 mm
17:42 27.4 °C 17.6 °C 1014.8 hPa WSW 13.0 km/h 13.0 km/h 55 % 0.0 mm
17:47 27.2 °C 17.1 °C 1014.8 hPa SW 13.0 km/h 13.0 km/h 54 % 0.0 mm
17:52 27.4 °C 17.3 °C 1014.8 hPa SSE 13.0 km/h 13.0 km/h 54 % 0.0 mm
17:57 27.2 °C 17.1 °C 1014.8 hPa West 9.3 km/h 9.3 km/h 54 % 0.0 mm
18:02 27.1 °C 17.0 °C 1014.8 hPa WSW 9.3 km/h 9.3 km/h 54 % 0.0 mm
18:07 27.1 °C 17.3 °C 1014.8 hPa SSW 7.9 km/h 7.9 km/h 55 % 0.0 mm
18:12 26.9 °C 17.4 °C 1014.8 hPa SSW 9.3 km/h 9.3 km/h 56 % 0.0 mm
18:17 26.7 °C 17.2 °C 1014.8 hPa South 14.8 km/h 14.8 km/h 56 % 0.0 mm
18:22 26.5 °C 17.0 °C 1014.8 hPa South 11.1 km/h 11.1 km/h 56 % 0.0 mm
18:27 26.4 °C 16.9 °C 1014.8 hPa SW 13.0 km/h 13.0 km/h 56 % 0.0 mm
18:32 26.2 °C 16.7 °C 1014.8 hPa SW 13.0 km/h 13.0 km/h 56 % 0.0 mm
18:37 25.9 °C 16.4 °C 1015.8 hPa SW 16.1 km/h 16.1 km/h 56 % 0.0 mm
18:42 25.8 °C 16.6 °C 1015.8 hPa SSE 13.0 km/h 13.0 km/h 57 % 0.0 mm
18:47 25.5 °C 16.6 °C 1015.8 hPa WSW 12.6 km/h 12.6 km/h 58 % 0.0 mm
18:52 23.5 °C 16.8 °C 1015.8 hPa SSW 37.0 km/h 37.0 km/h 66 % 0.0 mm
18:57 21.2 °C 15.5 °C 1015.8 hPa SSW 14.8 km/h 14.8 km/h 70 % 0.0 mm
19:02 20.4 °C 15.6 °C 1015.8 hPa SW 28.2 km/h 28.2 km/h 74 % 1.3 mm
19:07 19.4 °C 15.1 °C 1014.8 hPa West 14.8 km/h 14.8 km/h 76 % 1.3 mm
19:12 19.1 °C 14.8 °C 1014.8 hPa SW 11.1 km/h 11.1 km/h 76 % 1.3 mm
19:17 19.2 °C 15.1 °C 1014.8 hPa West 3.7 km/h 3.7 km/h 77 % 3.3 mm
19:22 19.3 °C 15.6 °C 1015.8 hPa NNE 3.7 km/h 3.7 km/h 79 % 3.3 mm
19:27 19.3 °C 15.8 °C 1015.8 hPa NE 5.6 km/h 5.6 km/h 80 % 3.3 mm
19:32 19.5 °C 16.2 °C 1015.8 hPa WNW 2.3 km/h   81 % 4.3 mm
19:37 19.4 °C 15.8 °C 1013.8 hPa WNW 2.3 km/h 2.3 km/h 80 % 4.3 mm
19:42 19.4 °C 16.2 °C 1013.8 hPa NE 3.7 km/h 3.7 km/h 82 % 5.3 mm
19:47 19.4 °C 16.4 °C 1013.8 hPa NNE 7.9 km/h 7.9 km/h 83 % 5.3 mm
19:52 19.3 °C 16.3 °C 1013.8 hPa ENE 9.3 km/h 9.3 km/h 83 % 5.3 mm
19:57 19.3 °C 16.5 °C 1013.8 hPa NE 9.3 km/h 9.3 km/h 84 % 5.3 mm
20:02 19.1 °C 16.3 °C 1013.8 hPa NNE 13.0 km/h 13.0 km/h 84 % 4.1 mm
20:07 19.4 °C 16.8 °C 1013.8 hPa ENE 7.4 km/h 7.4 km/h 85 % 4.1 mm
20:12 19.2 °C 16.8 °C 1013.8 hPa WNW 7.4 km/h 7.4 km/h 86 % 4.1 mm
20:15 18.7 °C 17.4 °C 1015.8 hPa Calm     92 % 0.0 mm
20:17 19.3 °C 17.1 °C 1013.8 hPa North 9.3 km/h 9.3 km/h 87 % 2.0 mm
20:22 19.3 °C 16.9 °C 1013.8 hPa SW 4.7 km/h 4.7 km/h 86 % 2.0 mm
20:25 18.7 °C 17.4 °C 1015.8 hPa Calm     92 % 0.0 mm
20:27 19.4 °C 17.2 °C 1013.8 hPa ENE 3.7 km/h 3.7 km/h 87 % 2.0 mm
20:32 19.4 °C 17.2 °C 1013.8 hPa ENE 1.9 km/h   87 % 1.0 mm
20:35 18.6 °C 17.3 °C 1015.8 hPa Calm     92 % 0.0 mm
20:37 19.5 °C 17.3 °C 1012.8 hPa SW 4.2 km/h 4.2 km/h 87 % 1.0 mm
20:42 19.4 °C 17.2 °C 1012.8 hPa SW 3.7 km/h   87 % 0.0 mm
20:45 18.5 °C 17.2 °C 1015.8 hPa Calm     92 % 0.0 mm
20:47 19.4 °C 17.0 °C 1012.8 hPa WSW 3.7 km/h 3.7 km/h 86 % 0.0 mm
20:52 19.4 °C 17.0 °C 1013.8 hPa SW 4.7 km/h 4.7 km/h 86 % 0.0 mm
20:55 18.4 °C 17.1 °C 1015.8 hPa Calm     92 % 0.0 mm
20:57 19.3 °C 17.1 °C 1013.8 hPa SW 3.7 km/h 3.7 km/h 87 % 0.0 mm
21:02 19.2 °C 17.0 °C 1013.8 hPa SW 3.7 km/h 3.7 km/h 87 % 0.0 mm
21:05 18.4 °C 17.1 °C 1016.8 hPa Calm     92 % 0.0 mm
21:07 19.1 °C 16.9 °C 1013.8 hPa SW 1.9 km/h 1.9 km/h 87 % 0.0 mm
21:12 19.1 °C 16.7 °C 1013.8 hPa WSW 7.4 km/h 7.4 km/h 86 % 0.0 mm
21:15 18.3 °C 17.2 °C 1016.8 hPa Calm     93 % 0.0 mm
21:17 19.1 °C 16.9 °C 1013.8 hPa West 3.7 km/h 3.7 km/h 87 % 0.0 mm
21:22 19.0 °C 16.8 °C 1013.8 hPa SW 5.8 km/h 5.8 km/h 87 % 0.0 mm
21:25 18.3 °C 17.2 °C 1015.8 hPa Calm     93 % 0.0 mm
21:27 19.0 °C 16.6 °C 1013.8 hPa SW 5.0 km/h 5.0 km/h 86 % 0.0 mm
21:28 19.0 °C 16.6 °C 1013.8 hPa West 3.7 km/h 4.2 km/h 86 % 0.0 mm
21:33 19.1 °C 16.9 °C 1013.8 hPa NNE 1.9 km/h   87 % 0.0 mm
21:35 18.3 °C 17.2 °C 1015.8 hPa Calm     93 % 0.0 mm
21:38 19.1 °C 17.1 °C 1013.8 hPa NNE 3.7 km/h 3.7 km/h 88 % 0.0 mm
21:43 19.1 °C 17.1 °C 1013.8 hPa NNE 3.7 km/h 3.7 km/h 88 % 0.0 mm
21:45 18.3 °C 17.2 °C 1015.8 hPa Calm     93 % 0.0 mm
21:48 19.1 °C 17.2 °C 1013.8 hPa ENE 3.7 km/h 3.7 km/h 89 % 0.0 mm
21:53 19.0 °C 17.2 °C 1014.8 hPa NE 3.7 km/h 3.9 km/h 89 % 0.0 mm
21:55 18.2 °C 17.1 °C 1015.8 hPa Calm     93 % 0.0 mm
21:58 19.1 °C 17.2 °C 1014.8 hPa NE 5.6 km/h 5.6 km/h 89 % 0.0 mm
22:03 19.1 °C 17.2 °C 1014.8 hPa Calm     89 % 0.0 mm
22:05 18.1 °C 16.9 °C 1015.8 hPa Calm     93 % 0.0 mm
22:08 19.1 °C 17.2 °C 1015.8 hPa Calm     89 % 0.0 mm
22:13 19.1 °C 17.2 °C 1015.8 hPa NE 2.6 km/h   89 % 0.0 mm
22:15 18.0 °C 16.8 °C 1015.8 hPa Calm     93 % 0.0 mm
22:18 19.2 °C 17.3 °C 1015.8 hPa ENE 3.7 km/h 3.7 km/h 89 % 0.0 mm
22:23 19.2 °C 17.3 °C 1015.8 hPa NE 1.9 km/h   89 % 0.0 mm
22:25 18.0 °C 16.8 °C 1014.8 hPa Calm     93 % 0.0 mm
22:28 19.2 °C 17.3 °C 1015.8 hPa ENE 3.7 km/h 3.7 km/h 89 % 0.0 mm
22:33 19.2 °C 17.5 °C 1015.8 hPa NE 3.7 km/h 3.7 km/h 90 % 0.0 mm
22:35 18.0 °C 16.8 °C 1014.8 hPa Calm     93 % 0.0 mm
22:38 19.1 °C 17.4 °C 1015.8 hPa Calm     90 % 0.0 mm
22:43 19.1 °C 17.2 °C 1015.8 hPa SW 3.7 km/h 3.7 km/h 89 % 0.0 mm
22:45 18.0 °C 16.8 °C 1014.8 hPa Calm     93 % 0.0 mm
22:48 19.0 °C 17.2 °C 1015.8 hPa SW 3.7 km/h 3.7 km/h 89 % 0.0 mm
22:53 19.0 °C 17.2 °C 1015.8 hPa WSW 3.7 km/h 3.7 km/h 89 % 0.0 mm
22:55 18.0 °C 16.8 °C 1014.8 hPa Calm     93 % 0.0 mm
22:58 19.0 °C 17.2 °C 1015.8 hPa Calm     89 % 0.0 mm
23:03 19.0 °C 17.3 °C 1015.8 hPa Calm     90 % 0.0 mm
23:05 17.8 °C 16.8 °C 1013.8 hPa Calm     94 % 0.0 mm
23:08 19.0 °C 17.3 °C 1015.8 hPa WSW 2.6 km/h 2.6 km/h 90 % 0.0 mm
23:13 19.0 °C 17.2 °C 1015.8 hPa SW 3.7 km/h 3.7 km/h 89 % 0.0 mm
23:15 17.6 °C 16.4 °C 1013.8 hPa Calm     93 % 0.0 mm
23:18 18.9 °C 17.2 °C 1015.8 hPa West 3.5 km/h   90 % 0.0 mm
23:23 19.0 °C 17.2 °C 1015.8 hPa SW 3.7 km/h 3.7 km/h 89 % 0.0 mm
23:25 17.5 °C 16.3 °C 1014.8 hPa Calm     93 % 0.0 mm
23:28 19.0 °C 17.3 °C 1015.8 hPa Calm     90 % 0.0 mm
23:33 18.9 °C 17.4 °C 1015.8 hPa Calm     91 % 0.0 mm
23:35 17.4 °C 16.3 °C 1013.8 hPa SW 1.6 km/h 3.2 km/h 93 % 0.0 mm
23:38 19.0 °C 17.3 °C 1015.8 hPa Calm     90 % 0.0 mm
23:43 19.0 °C 17.3 °C 1015.8 hPa Calm     90 % 0.0 mm
23:45 17.3 °C 16.2 °C 1013.8 hPa SW 1.6 km/h 3.2 km/h 93 % 0.0 mm
23:48 19.0 °C 17.3 °C 1015.8 hPa Calm     90 % 0.0 mm
23:53 18.9 °C 17.4 °C 1015.8 hPa Calm     91 % 0.0 mm
23:55 17.3 °C 16.3 °C 1014.8 hPa Calm   1.6 km/h 94 % 0.0 mm
23:58 19.0 °C 17.3 °C 1015.8 hPa Calm     90 % 0.0 mm
Meteo Sesrovires
Elogis d' Weather Underground - 3.75 mb

Guio original per  Jim McMurry - jmcmurry@mwt.net Adaptat per a la plantilla per  Wim van der Kuil - Leuven-Template.eu

Trobareu la nostra informacio del temps tambe a:

Weather Underground

AWEKAS